Time;durP1;ratioP1;P1;durP2;ratioP2;P2;SDS_P1;SDS_P2;PMS_P1;PMS_P2;Temp;Humidity;BMP_temperature;BMP_pressure;BME280_temperature;BME280_humidity;BME280_pressure;Samples;Min_cycle;Max_cycle;Signal;HPM_P1;HPM_P2
2021/12/11 00:00:14;;;;;;;22.27;14.23;;;;;;;5.29;100.00;98745.06;5053931;28;20205;-63
2021/12/11 00:02:43;;;;;;;15.33;11.53;;;;;;;5.33;100.00;98752.63;5053783;28;20204;-63
2021/12/11 00:05:12;;;;;;;11.73;10.17;;;;;;;5.43;100.00;98766.84;5053563;28;20196;-63
2021/12/11 00:07:39;;;;;;;11.77;10.57;;;;;;;5.14;100.00;98744.50;5052710;28;20201;-63
2021/12/11 00:10:13;;;;;;;14.63;11.63;;;;;;;5.18;100.00;98772.38;5053184;28;20208;-63
2021/12/11 00:12:45;;;;;;;13.27;11.87;;;;;;;5.25;100.00;98771.41;5052556;28;20322;-63
2021/12/11 00:15:16;;;;;;;29.40;17.90;;;;;;;5.26;100.00;98783.25;5051520;28;20288;-63
2021/12/11 00:17:43;;;;;;;14.87;13.17;;;;;;;5.27;100.00;98800.16;5051486;28;20540;-63
2021/12/11 00:20:17;;;;;;;16.37;12.23;;;;;;;5.13;100.00;98793.66;5051499;28;20200;-63
2021/12/11 00:22:45;;;;;;;14.40;11.40;;;;;;;4.97;100.00;98798.19;5050483;28;20290;-63
2021/12/11 00:25:15;;;;;;;13.43;10.10;;;;;;;4.82;100.00;98778.09;5048621;28;20228;-63
2021/12/11 00:27:44;;;;;;;12.27;11.13;;;;;;;4.81;100.00;98791.69;5050801;28;20279;-63
2021/12/11 00:30:21;;;;;;;11.90;10.70;;;;;;;4.88;100.00;98800.84;5052089;28;20193;-63
2021/12/11 00:32:48;;;;;;;14.80;13.23;;;;;;;5.00;100.00;98813.38;5051295;28;20196;-63
2021/12/11 00:35:20;;;;;;;14.97;12.00;;;;;;;4.95;100.00;98799.88;5050752;28;20201;-63
2021/12/11 00:37:47;;;;;;;16.03;12.00;;;;;;;5.09;100.00;98819.97;5050585;28;20296;-63
2021/12/11 00:40:19;;;;;;;12.67;10.50;;;;;;;5.09;100.00;98818.28;5050961;28;20192;-63
2021/12/11 00:42:48;;;;;;;14.63;10.17;;;;;;;5.14;100.00;98815.63;5050889;28;20222;-63
2021/12/11 00:45:17;;;;;;;11.93;10.70;;;;;;;5.07;100.00;98814.91;5050789;28;20233;-63
2021/12/11 00:47:47;;;;;;;17.33;13.73;;;;;;;5.08;100.00;98816.59;5051114;28;20224;-63
2021/12/11 00:50:17;;;;;;;16.97;13.17;;;;;;;5.10;100.00;98809.81;5049705;28;20200;-63
2021/12/11 00:52:47;;;;;;;12.33;11.03;;;;;;;5.08;100.00;98808.97;5052638;28;20205;-63
2021/12/11 00:55:21;;;;;;;13.00;10.40;;;;;;;4.93;100.00;98805.88;5053006;28;20212;-63
2021/12/11 00:57:51;;;;;;;9.30;8.47;;;;;;;4.71;100.00;98803.69;5052715;28;20211;-63
2021/12/11 01:00:23;;;;;;;11.60;8.77;;;;;;;4.66;100.00;98807.16;5052898;28;20204;-63
2021/12/11 01:02:54;;;;;;;12.17;9.67;;;;;;;4.76;100.00;98801.06;5052767;28;20204;-63
2021/12/11 01:05:22;;;;;;;15.13;10.30;;;;;;;4.85;100.00;98810.25;5052529;28;20201;-63
2021/12/11 01:07:49;;;;;;;16.07;11.27;;;;;;;4.83;100.00;98802.63;5052787;28;20200;-63
2021/12/11 01:10:24;;;;;;;17.23;11.93;;;;;;;4.84;100.00;98790.78;5052352;28;20684;-62
2021/12/11 01:12:57;;;;;;;20.17;13.17;;;;;;;4.83;100.00;98789.94;5052516;28;20208;-63
2021/12/11 01:15:31;;;;;;;13.40;11.60;;;;;;;4.71;100.00;98787.63;5052434;28;20287;-63
2021/12/11 01:18:10;;;;;;;14.00;12.03;;;;;;;4.65;100.00;98778.38;5052272;28;20259;-62
2021/12/11 01:20:47;;;;;;;14.67;12.00;;;;;;;4.70;100.00;98779.16;5052273;28;20216;-63
2021/12/11 01:23:28;;;;;;;12.23;11.13;;;;;;;4.74;100.00;98787.56;5052436;28;20642;-63
2021/12/11 01:25:57;;;;;;;18.00;12.17;;;;;;;4.71;100.00;98791.00;5052171;28;20223;-63
2021/12/11 01:28:25;;;;;;;14.63;11.67;;;;;;;4.78;100.00;98786.66;5052196;28;20711;-63
2021/12/11 01:30:53;;;;;;;14.97;12.27;;;;;;;4.71;100.00;98780.00;5052103;28;20200;-63
2021/12/11 01:33:20;;;;;;;18.60;12.17;;;;;;;4.53;100.00;98750.66;5051951;28;20197;-63
2021/12/11 01:35:47;;;;;;;21.67;13.20;;;;;;;4.58;100.00;98773.44;5051647;28;20216;-63
2021/12/11 01:38:19;;;;;;;19.10;14.30;;;;;;;4.69;100.00;98780.00;5051899;28;20577;-63
2021/12/11 01:40:49;;;;;;;26.27;15.60;;;;;;;4.73;100.00;98780.81;5051937;28;20209;-63
2021/12/11 01:43:21;;;;;;;22.70;14.43;;;;;;;4.72;100.00;98781.66;5051696;28;20208;-63
2021/12/11 01:45:50;;;;;;;20.17;14.67;;;;;;;4.75;100.00;98776.53;5050730;28;20209;-63
2021/12/11 01:48:18;;;;;;;30.60;17.17;;;;;;;4.75;100.00;98776.53;5051016;28;20204;-63
2021/12/11 01:50:50;;;;;;;30.90;16.77;;;;;;;4.64;100.00;98764.03;5051788;28;20211;-63
2021/12/11 01:53:21;;;;;;;36.30;17.37;;;;;;;4.69;100.00;98779.16;5051399;28;20208;-63
2021/12/11 01:55:54;;;;;;;26.73;15.77;;;;;;;4.75;100.00;98776.53;5051666;28;20671;-63
2021/12/11 01:58:27;;;;;;;42.63;16.83;;;;;;;4.65;100.00;98770.75;5051458;28;20657;-63
2021/12/11 02:00:57;;;;;;;34.00;16.43;;;;;;;4.67;100.00;98770.75;5051445;28;20295;-63
2021/12/11 02:03:27;;;;;;;19.97;13.87;;;;;;;4.37;100.00;98768.69;5051439;28;20200;-63
2021/12/11 02:05:54;;;;;;;25.03;14.50;;;;;;;4.30;100.00;98772.22;5051135;28;20291;-62
2021/12/11 02:08:35;;;;;;;20.27;14.23;;;;;;;4.39;100.00;98772.06;5051279;28;20196;-63
2021/12/11 02:11:05;;;;;;;19.17;13.10;;;;;;;4.38;100.00;98780.53;5051515;28;20207;-62
2021/12/11 02:13:42;;;;;;;22.00;13.57;;;;;;;4.44;100.00;98780.44;5051455;28;20197;-63
2021/12/11 02:16:18;;;;;;;16.53;12.47;;;;;;;4.48;100.00;98777.84;5048052;28;20656;-63
2021/12/11 02:18:49;;;;;;;16.50;11.83;;;;;;;4.54;100.00;98776.88;5050424;28;20211;-63
2021/12/11 02:21:21;;;;;;;19.50;12.80;;;;;;;4.57;100.00;98782.75;5050899;28;20205;-63
2021/12/11 02:23:58;;;;;;;17.00;11.97;;;;;;;4.60;100.00;98785.25;5049481;28;20315;-63
2021/12/11 02:26:27;;;;;;;16.43;11.77;;;;;;;4.54;100.00;98776.88;5049136;28;20226;-63
2021/12/11 02:29:01;;;;;;;11.93;10.43;;;;;;;4.56;100.00;98770.91;5049239;28;20232;-63
2021/12/11 02:31:31;;;;;;;9.83;8.77;;;;;;;4.41;100.00;98745.81;5048977;28;20205;-63
2021/12/11 02:34:07;;;;;;;9.40;8.27;;;;;;;4.42;100.00;98777.09;5049284;28;20192;-63
2021/12/11 02:36:38;;;;;;;8.10;6.93;;;;;;;4.43;100.00;98771.97;5049062;28;20208;-62
2021/12/11 02:39:13;;;;;;;11.23;8.37;;;;;;;4.40;100.00;98773.72;5049670;28;20565;-63
2021/12/11 02:41:49;;;;;;;8.87;7.97;;;;;;;4.43;100.00;98763.53;5049591;28;20205;-63
2021/12/11 02:44:20;;;;;;;12.77;8.07;;;;;;;4.46;100.00;98753.34;5048820;28;20216;-63
2021/12/11 02:46:52;;;;;;;8.73;7.00;;;;;;;4.52;100.00;98773.56;5048428;28;20616;-63
2021/12/11 02:49:25;;;;;;;6.93;6.23;;;;;;;4.56;100.00;98787.84;5048589;28;20205;-63
2021/12/11 02:51:55;;;;;;;7.70;6.00;;;;;;;4.60;100.00;98766.63;5048880;28;20672;-63
2021/12/11 02:54:27;;;;;;;6.30;5.70;;;;;;;4.66;100.00;98761.47;5048908;28;20220;-63
2021/12/11 02:56:59;;;;;;;6.67;6.20;;;;;;;4.68;100.00;98749.59;5049269;28;20193;-63
2021/12/11 02:59:29;;;;;;;6.43;6.00;;;;;;;4.68;100.00;98759.75;5049022;28;20200;-63
2021/12/11 03:02:01;;;;;;;6.27;5.80;;;;;;;4.65;100.00;98749.66;5049694;28;20641;-63
2021/12/11 03:04:36;;;;;;;9.57;5.60;;;;;;;4.70;100.00;98778.31;5050743;28;20192;-63
2021/12/11 03:07:07;;;;;;;7.03;6.33;;;;;;;4.52;100.00;98774.41;5050403;28;20290;-63
2021/12/11 03:09:39;;;;;;;10.87;6.40;;;;;;;4.42;100.00;98765.25;5050724;28;20206;-63
2021/12/11 03:12:09;;;;;;;6.57;5.97;;;;;;;4.42;100.00;98772.84;5050388;28;20668;-63
2021/12/11 03:14:36;;;;;;;7.77;7.17;;;;;;;4.43;100.00;98763.53;5050510;28;20192;-63
2021/12/11 03:17:03;;;;;;;6.43;5.93;;;;;;;4.52;100.00;98771.00;5050499;28;20201;-63
2021/12/11 03:19:33;;;;;;;6.20;5.70;;;;;;;4.52;100.00;98771.00;5046723;28;20668;-63
2021/12/11 03:22:03;;;;;;;6.50;5.43;;;;;;;4.54;100.00;98769.28;5049223;28;20220;-63
2021/12/11 03:24:31;;;;;;;7.37;6.87;;;;;;;4.51;100.00;98756.63;5050400;28;20224;-63
2021/12/11 03:26:59;;;;;;;9.93;8.00;;;;;;;4.53;100.00;98747.28;5050282;28;20217;-63
2021/12/11 03:29:26;;;;;;;8.83;8.00;;;;;;;4.44;100.00;98724.59;5050306;28;20196;-63
2021/12/11 03:31:54;;;;;;;8.10;7.30;;;;;;;4.60;100.00;98743.78;5050411;28;20227;-63
2021/12/11 03:34:24;;;;;;;8.10;7.37;;;;;;;4.62;100.00;98729.41;5050136;28;20196;-63
2021/12/11 03:36:51;;;;;;;11.13;8.03;;;;;;;4.64;100.00;98747.97;5050679;28;20200;-63
2021/12/11 03:39:24;;;;;;;8.20;7.60;;;;;;;4.67;100.00;98738.59;5046800;28;20200;-63
2021/12/11 03:41:54;;;;;;;6.73;6.23;;;;;;;4.70;100.00;98733.47;5049295;28;20201;-63
2021/12/11 03:44:23;;;;;;;5.57;5.20;;;;;;;4.68;100.00;98731.81;5050201;28;20319;-63
2021/12/11 03:46:54;;;;;;;4.93;4.63;;;;;;;4.72;100.00;98758.81;5050336;28;20267;-63
2021/12/11 03:49:22;;;;;;;5.20;4.90;;;;;;;4.74;100.00;98759.63;5050152;28;20197;-63
2021/12/11 03:51:52;;;;;;;6.13;5.63;;;;;;;4.64;100.00;98737.81;5050152;28;20255;-62
2021/12/11 03:54:23;;;;;;;7.60;7.07;;;;;;;4.69;100.00;98746.16;5049992;28;20250;-63
2021/12/11 03:56:50;;;;;;;6.27;5.77;;;;;;;4.67;100.00;98760.59;5050503;28;20200;-63
2021/12/11 03:59:17;;;;;;;5.40;5.00;;;;;;;4.64;100.00;98769.13;5050338;28;20589;-63
2021/12/11 04:01:51;;;;;;;4.83;4.50;;;;;;;4.63;100.00;98776.75;5053631;28;20262;-63
2021/12/11 04:04:23;;;;;;;4.80;4.40;;;;;;;4.61;100.00;98783.56;5052367;28;20691;-63
2021/12/11 04:06:51;;;;;;;4.50;4.13;;;;;;;4.65;100.00;98780.09;5053717;28;20774;-63
2021/12/11 04:09:19;;;;;;;3.83;3.63;;;;;;;4.67;100.00;98768.22;5053704;28;20200;-63
2021/12/11 04:11:48;;;;;;;3.20;3.00;;;;;;;4.65;100.00;98772.50;5053500;28;20216;-63
2021/12/11 04:14:18;;;;;;;3.23;3.03;;;;;;;4.65;100.00;98775.03;5053435;28;20203;-63
2021/12/11 04:16:48;;;;;;;4.63;4.23;;;;;;;4.65;100.00;98765.69;5053647;28;20200;-63
2021/12/11 04:19:15;;;;;;;3.70;3.40;;;;;;;4.63;100.00;98771.66;5053280;28;20201;-63
2021/12/11 04:21:43;;;;;;;5.30;3.50;;;;;;;4.61;100.00;98765.78;5053319;28;20729;-63
2021/12/11 04:24:12;;;;;;;5.60;3.60;;;;;;;4.41;100.00;98771.19;5053162;28;20217;-63
2021/12/11 04:26:39;;;;;;;4.10;3.80;;;;;;;4.42;100.00;98767.78;5050853;28;20458;-63
2021/12/11 04:29:07;;;;;;;4.93;4.57;;;;;;;4.42;100.00;98770.31;5052500;28;20192;-63
2021/12/11 04:31:36;;;;;;;5.90;5.60;;;;;;;4.36;100.00;98767.03;5052679;28;20205;-63
2021/12/11 04:34:07;;;;;;;6.03;4.90;;;;;;;4.26;100.00;98747.75;5053008;28;20239;-63
2021/12/11 04:36:39;;;;;;;6.90;5.53;;;;;;;4.24;100.00;98740.97;5051201;28;20200;-63
2021/12/11 04:39:07;;;;;;;6.17;5.73;;;;;;;4.32;100.00;98745.94;5049722;28;20201;-63
2021/12/11 04:41:42;;;;;;;6.67;6.17;;;;;;;4.30;100.00;98736.69;5051280;28;20201;-63
2021/12/11 04:44:14;;;;;;;7.57;5.80;;;;;;;4.29;100.00;98723.16;5051219;28;20708;-63
2021/12/11 04:46:42;;;;;;;6.60;6.10;;;;;;;4.26;100.00;98719.84;5050767;28;20918;-63
2021/12/11 04:49:15;;;;;;;10.47;9.50;;;;;;;4.30;100.00;98711.31;5051345;28;20575;-63
2021/12/11 04:51:47;;;;;;;8.37;7.80;;;;;;;4.35;100.00;98709.53;5050852;28;20201;-63
2021/12/11 04:54:32;;;;;;;11.13;9.87;;;;;;;4.32;100.00;98704.50;5050338;28;20205;-63
2021/12/11 04:57:33;;;;;;;10.63;9.53;;;;;;;4.33;100.00;98713.81;5049289;28;20204;-62
2021/12/11 05:00:07;;;;;;;8.53;7.93;;;;;;;4.37;100.00;98717.94;5050652;28;20677;-63
2021/12/11 05:03:08;;;;;;;10.83;9.80;;;;;;;4.32;100.00;98725.66;5050727;28;20299;-63
2021/12/11 05:05:55;;;;;;;9.33;8.50;;;;;;;4.29;100.00;98732.47;5051128;28;20200;-63
2021/12/11 05:09:02;;;;;;;8.47;7.77;;;;;;;4.21;100.00;98712.28;5052689;28;20698;-63
2021/12/11 05:11:35;;;;;;;10.47;9.53;;;;;;;4.34;100.00;98730.69;5051558;28;20279;-63
2021/12/11 05:14:02;;;;;;;9.03;8.23;;;;;;;4.28;100.00;98706.25;5052667;28;20694;-63
2021/12/11 05:16:29;;;;;;;134.00;43.93;;;;;;;4.42;100.00;98718.72;5052562;28;20716;-63
2021/12/11 05:18:56;;;;;;;340.00;114.90;;;;;;;4.42;100.00;98711.13;5052244;28;20197;-63
2021/12/11 05:21:24;;;;;;;296.03;96.10;;;;;;;4.46;100.00;98703.41;5052311;28;20203;-62
2021/12/11 05:23:52;;;;;;;56.83;24.70;;;;;;;4.50;100.00;98696.59;5051942;28;20207;-63
2021/12/11 05:26:21;;;;;;;92.13;31.27;;;;;;;4.48;100.00;98685.63;5052035;28;20201;-63
2021/12/11 05:28:49;;;;;;;62.57;23.83;;;;;;;4.49;100.00;98690.66;5051960;28;20221;-63
2021/12/11 05:31:17;;;;;;;21.93;12.47;;;;;;;4.45;100.00;98675.53;5051140;28;20200;-62
2021/12/11 05:33:44;;;;;;;11.73;10.50;;;;;;;4.40;100.00;98687.44;5050947;28;20205;-62
2021/12/11 05:36:14;;;;;;;10.80;8.93;;;;;;;4.40;100.00;98697.59;5051913;28;20215;-63
2021/12/11 05:38:43;;;;;;;7.53;6.83;;;;;;;4.44;100.00;98699.22;5050461;28;20220;-63
2021/12/11 05:41:13;;;;;;;7.67;7.00;;;;;;;4.43;100.00;98707.69;5051886;28;20201;-64
2021/12/11 05:43:40;;;;;;;8.17;7.47;;;;;;;4.43;100.00;98703.47;5052007;28;20200;-63
2021/12/11 05:46:11;;;;;;;6.83;6.33;;;;;;;4.47;100.00;98704.25;5051583;28;20193;-62
2021/12/11 05:48:38;;;;;;;6.30;5.70;;;;;;;4.52;100.00;98707.56;5051721;28;20213;-63
2021/12/11 05:51:09;;;;;;;6.00;5.27;;;;;;;4.52;100.00;98705.88;5043835;28;20205;-63
2021/12/11 05:53:36;;;;;;;6.17;5.60;;;;;;;4.52;100.00;98707.56;5038510;28;20208;-63
2021/12/11 05:56:10;;;;;;;18.07;7.57;;;;;;;4.56;100.00;98710.00;5046022;28;20204;-63
2021/12/11 05:58:48;;;;;;;522.53;216.43;;;;;;;4.62;100.00;98714.16;5046335;28;20201;-63
2021/12/11 06:01:19;;;;;;;304.00;110.93;;;;;;;4.63;100.00;98710.75;5048992;28;20686;-63
2021/12/11 06:03:46;;;;;;;169.17;60.13;;;;;;;4.54;100.00;98685.53;5051120;28;20689;-63
2021/12/11 06:06:13;;;;;;;126.47;46.17;;;;;;;4.62;100.00;98709.09;5051728;28;20193;-63
2021/12/11 06:08:41;;;;;;;69.17;31.67;;;;;;;4.63;100.00;98714.13;5047617;28;20217;-63
2021/12/11 06:11:11;;;;;;;37.87;22.80;;;;;;;4.65;100.00;98698.88;5051448;28;20192;-63
2021/12/11 06:13:39;;;;;;;29.97;20.17;;;;;;;4.67;100.00;98717.44;5051318;28;20199;-63
2021/12/11 06:16:06;;;;;;;19.83;14.90;;;;;;;4.69;100.00;98720.78;5050872;28;20205;-63
2021/12/11 06:18:33;;;;;;;15.43;13.63;;;;;;;4.66;100.00;98716.59;5050994;28;20192;-62
2021/12/11 06:21:00;;;;;;;20.23;14.60;;;;;;;4.72;100.00;98702.97;5051051;28;20208;-63
2021/12/11 06:23:28;;;;;;;25.50;15.90;;;;;;;4.78;100.00;98697.78;5050746;28;20199;-62
2021/12/11 06:25:55;;;;;;;20.20;18.03;;;;;;;4.78;100.00;98689.34;5049811;28;20282;-63
2021/12/11 06:28:25;;;;;;;12.40;11.20;;;;;;;4.79;100.00;98709.59;5051002;28;20223;-63
2021/12/11 06:30:54;;;;;;;38.63;22.57;;;;;;;4.78;100.00;98706.22;5046472;28;20215;-63
2021/12/11 06:33:21;;;;;;;21.73;15.67;;;;;;;4.72;100.00;98701.25;5050057;28;20262;-63
2021/12/11 06:35:54;;;;;;;17.63;13.00;;;;;;;4.83;100.00;98729.00;5050008;28;20292;-63
2021/12/11 06:38:24;;;;;;;14.13;12.60;;;;;;;4.88;100.00;98719.59;5050786;28;20203;-63
2021/12/11 06:40:51;;;;;;;10.07;9.23;;;;;;;4.89;100.00;98723.81;5050677;28;20572;-63
2021/12/11 06:43:18;;;;;;;9.90;9.03;;;;;;;4.92;100.00;98723.75;5050524;28;20208;-62
2021/12/11 06:45:47;;;;;;;8.03;7.43;;;;;;;4.75;100.00;98680.06;5050610;28;20203;-62
2021/12/11 06:48:15;;;;;;;13.33;11.83;;;;;;;4.94;100.00;98714.44;5050468;28;20212;-62
2021/12/11 06:50:43;;;;;;;12.07;10.03;;;;;;;5.00;100.00;98705.84;5050497;28;20196;-63
2021/12/11 06:53:15;;;;;;;12.30;10.47;;;;;;;5.11;100.00;98694.59;5050543;28;20196;-63
2021/12/11 06:55:42;;;;;;;8.83;8.03;;;;;;;5.06;100.00;98676.09;5050295;28;20220;-63
2021/12/11 06:58:09;;;;;;;13.00;8.67;;;;;;;5.24;100.00;98693.50;5050349;28;20232;-63
2021/12/11 07:00:36;;;;;;;10.23;9.23;;;;;;;5.29;100.00;98706.13;5050821;28;20211;-63
2021/12/11 07:03:05;;;;;;;9.57;8.57;;;;;;;5.32;100.00;98702.66;5048975;28;20196;-63
2021/12/11 07:05:33;;;;;;;11.53;9.80;;;;;;;5.47;100.00;98702.34;5048322;28;20197;-63
2021/12/11 07:08:04;;;;;;;17.17;12.47;;;;;;;5.53;100.00;98699.66;5046866;28;20254;-63
2021/12/11 07:10:31;;;;;;;15.57;10.87;;;;;;;5.54;100.00;98698.81;5046202;28;20208;-62
2021/12/11 07:12:58;;;;;;;10.23;9.03;;;;;;;5.60;100.00;98703.75;5048672;28;20216;-63
2021/12/11 07:15:27;;;;;;;9.27;8.37;;;;;;;5.76;100.00;98716.13;5047071;28;20201;-63
2021/12/11 07:17:54;;;;;;;13.97;8.30;;;;;;;5.69;100.00;98699.31;5048128;28;20584;-63
2021/12/11 07:20:22;;;;;;;8.00;7.30;;;;;;;5.79;100.00;98715.22;5047696;28;20207;-62
2021/12/11 07:22:49;;;;;;;7.37;6.67;;;;;;;5.94;100.00;98714.06;5043647;28;20584;-63
2021/12/11 07:25:19;;;;;;;9.00;8.30;;;;;;;5.92;100.00;98705.63;5047789;28;20228;-63
2021/12/11 07:27:47;;;;;;;9.33;8.50;;;;;;;6.11;100.00;98714.50;5046747;28;20227;-63
2021/12/11 07:30:15;;;;;;;9.70;8.97;;;;;;;6.22;100.00;98715.09;5045115;28;20204;-62
2021/12/11 07:32:42;;;;;;;8.87;8.07;;;;;;;6.33;100.00;98708.88;5045774;28;20593;-63
2021/12/11 07:35:09;;;;;;;9.30;8.40;;;;;;;6.18;100.00;98678.72;5049523;28;20208;-63
2021/12/11 07:37:38;;;;;;;8.77;8.07;;;;;;;6.51;100.00;98696.56;5051563;28;20216;-63
2021/12/11 07:40:07;;;;;;;8.87;8.17;;;;;;;6.63;100.00;98696.25;5050077;28;20212;-63
2021/12/11 07:42:36;;;;;;;8.87;8.03;;;;;;;6.65;100.00;98686.88;5050385;28;20197;-64
2021/12/11 07:45:03;;;;;;;7.47;6.80;;;;;;;6.77;100.00;98681.47;5049307;28;20651;-63
2021/12/11 07:47:30;;;;;;;18.53;9.43;;;;;;;6.86;100.00;98674.41;5051513;28;20196;-63
2021/12/11 07:49:57;;;;;;;17.07;10.47;;;;;;;6.97;100.00;98674.13;5051337;28;20211;-63
2021/12/11 07:52:24;;;;;;;10.33;9.30;;;;;;;7.06;100.00;98656.03;5051248;28;20201;-63
2021/12/11 07:54:52;;;;;;;12.53;10.30;;;;;;;7.26;100.00;98658.88;5050425;28;20212;-63
2021/12/11 07:57:19;;;;;;;8.33;7.63;;;;;;;7.44;100.00;98669.41;5050699;28;20238;-63
2021/12/11 07:59:46;;;;;;;10.13;9.13;;;;;;;7.64;100.00;98669.66;5051070;28;20201;-63
2021/12/11 08:02:13;;;;;;;11.10;10.00;;;;;;;7.69;100.00;98657.59;5050394;28;20201;-63
2021/12/11 08:04:40;;;;;;;9.37;8.10;;;;;;;7.93;100.00;98667.88;5047757;28;20204;-63
2021/12/11 08:07:07;;;;;;;10.37;9.23;;;;;;;8.01;100.00;98665.09;5050962;28;20205;-63
2021/12/11 08:09:35;;;;;;;7.17;6.67;;;;;;;8.01;100.00;98649.78;5047243;28;20212;-63
2021/12/11 08:12:05;;;;;;;7.30;6.70;;;;;;;8.32;100.00;98675.19;5051155;28;20209;-62
2021/12/11 08:14:32;;;;;;;7.17;5.40;;;;;;;8.48;100.00;98680.63;5047571;28;20213;-63
2021/12/11 08:17:04;;;;;;;5.43;4.97;;;;;;;8.58;100.00;98671.75;5050303;28;20231;-64
2021/12/11 08:19:31;;;;;;;6.63;5.50;;;;;;;8.71;100.00;98675.56;5047848;28;20725;-64
2021/12/11 08:22:01;;;;;;;5.90;5.37;;;;;;;8.86;100.00;98662.25;5048517;28;20236;-64
2021/12/11 08:24:29;;;;;;;15.03;13.70;;;;;;;9.01;100.00;98655.78;5049522;28;20692;-65
2021/12/11 08:26:58;;;;;;;11.03;8.03;;;;;;;9.24;100.00;98661.72;5048819;28;20228;-64
2021/12/11 08:29:27;;;;;;;7.67;6.97;;;;;;;9.35;100.00;98667.28;5047641;28;20229;-64
2021/12/11 08:31:56;;;;;;;16.95;12.60;;;;;;;9.54;100.00;98657.19;5048112;28;20205;-64
2021/12/11 08:34:24;;;;;;;7.40;6.07;;;;;;;9.74;100.00;98654.72;5048109;28;20240;-64
2021/12/11 08:36:51;;;;;;;14.07;8.73;;;;;;;9.96;100.00;98645.31;5050081;28;20200;-64
2021/12/11 08:39:19;;;;;;;10.03;8.27;;;;;;;10.18;100.00;98645.31;5048374;28;20201;-64
2021/12/11 08:41:48;;;;;;;8.10;6.40;;;;;;;10.35;100.00;98647.19;5047482;28;20213;-64
2021/12/11 08:44:17;;;;;;;6.30;5.90;;;;;;;10.50;100.00;98644.00;5050196;28;20210;-63
2021/12/11 08:46:49;;;;;;;6.67;6.17;;;;;;;10.57;100.00;98624.03;5048673;28;20205;-62
2021/12/11 08:49:19;;;;;;;12.73;8.00;;;;;;;10.76;100.00;98637.78;5049109;28;20224;-63
2021/12/11 08:51:51;;;;;;;18.67;10.73;;;;;;;10.87;100.00;98631.25;5050885;28;20573;-62
2021/12/11 08:54:19;;;;;;;7.60;6.03;;;;;;;10.96;100.00;98622.31;5049537;28;20201;-63
2021/12/11 08:56:46;;;;;;;10.30;5.90;;;;;;;10.91;100.00;98601.19;5048647;28;20216;-62
2021/12/11 08:59:16;;;;;;;8.77;7.00;;;;;;;11.18;100.00;98622.22;5050516;28;20211;-64
2021/12/11 09:01:49;;;;;;;12.10;8.82;;;;;;;11.18;100.00;98625.59;5049954;28;20465;-67
2021/12/11 09:04:20;;;;;;;10.30;7.27;;;;;;;11.40;100.00;98610.91;5051562;28;20205;-68
2021/12/11 09:06:52;;;;;;;19.33;10.13;;;;;;;11.56;100.00;98614.44;5048322;28;20213;-66
2021/12/11 09:09:25;;;;;;;7.47;6.77;;;;;;;11.66;100.00;98608.88;5051162;28;20224;-67
2021/12/11 09:11:57;;;;;;;13.47;7.73;;;;;;;11.71;100.00;98600.06;5051423;28;20711;-67
2021/12/11 09:14:28;;;;;;;9.40;7.63;;;;;;;11.88;100.00;98596.72;5051103;28;20220;-67
2021/12/11 09:17:02;;;;;;;19.97;8.80;;;;;;;11.86;100.00;98572.81;5050100;28;20303;-67
2021/12/11 09:19:36;;;;;;;9.30;4.77;;;;;;;12.19;100.00;98573.75;5050907;28;20197;-68
2021/12/11 09:22:10;;;;;;;6.97;5.83;;;;;;;12.25;100.00;98575.16;5050936;28;20231;-68
2021/12/11 09:24:43;;;;;;;6.13;5.43;;;;;;;12.31;100.00;98570.56;5049912;28;20221;-67
2021/12/11 09:27:13;;;;;;;13.53;7.40;;;;;;;12.37;100.00;98557.41;5048774;28;20236;-67
2021/12/11 09:29:44;;;;;;;17.03;9.77;;;;;;;12.50;100.00;98555.84;5049427;28;20219;-67
2021/12/11 09:32:17;;;;;;;7.33;6.50;;;;;;;12.56;100.00;98529.88;5050723;28;20201;-67
2021/12/11 09:34:46;;;;;;;5.27;4.10;;;;;;;12.68;100.00;98532.69;5050066;28;20209;-67
2021/12/11 09:37:13;;;;;;;10.90;6.97;;;;;;;12.69;100.00;98531.78;5051018;28;20209;-67
2021/12/11 09:39:43;;;;;;;19.67;8.97;;;;;;;12.78;100.00;98533.88;5051189;28;20201;-67
2021/12/11 09:42:10;;;;;;;5.63;4.83;;;;;;;12.85;100.00;98535.22;5051825;28;20196;-67
2021/12/11 09:44:42;;;;;;;5.83;4.30;;;;;;;12.86;100.00;98547.97;5052093;28;20197;-67
2021/12/11 09:47:13;;;;;;;44.77;13.60;;;;;;;12.86;100.00;98542.81;5045845;28;20200;-67
2021/12/11 09:49:44;;;;;;;6.80;3.47;;;;;;;12.89;100.00;98544.44;5051747;28;20216;-67
2021/12/11 09:52:18;;;;;;;21.10;7.33;;;;;;;12.92;100.00;98531.41;5052050;28;20196;-67
2021/12/11 09:54:50;;;;;;;6.07;5.17;;;;;;;13.01;100.00;98536.06;5051563;28;20204;-67
2021/12/11 09:57:21;;;;;;;19.13;11.43;;;;;;;12.99;100.00;98522.41;5051325;28;20287;-67
2021/12/11 09:59:52;;;;;;;6.63;4.00;;;;;;;13.01;100.00;98530.91;5051735;28;20733;-67
2021/12/11 10:02:22;;;;;;;8.07;4.00;;;;;;;13.02;100.00;98525.66;5052044;28;20208;-67
2021/12/11 10:04:59;;;;;;;4.93;4.43;;;;;;;12.98;100.00;98528.50;5051727;28;20684;-69
2021/12/11 10:07:31;;;;;;;4.67;4.47;;;;;;;12.91;100.00;98520.28;5051912;28;20193;-68
2021/12/11 10:10:04;;;;;;;6.33;5.20;;;;;;;12.97;100.00;98504.50;5050697;28;20718;-67
2021/12/11 10:12:35;;;;;;;9.33;6.17;;;;;;;13.10;100.00;98500.41;5052092;28;20201;-66
2021/12/11 10:15:09;;;;;;;6.97;3.93;;;;;;;13.26;100.00;98484.94;5051622;28;20204;-67
2021/12/11 10:17:42;;;;;;;4.57;3.27;;;;;;;13.36;100.00;98500.69;5051633;28;20583;-67
2021/12/11 10:20:14;;;;;;;6.30;4.37;;;;;;;13.28;100.00;98502.88;5051529;28;20196;-68
2021/12/11 10:22:43;;;;;;;7.33;2.90;;;;;;;13.19;100.00;98504.19;5050515;28;20232;-67
2021/12/11 10:25:16;;;;;;;10.63;3.57;;;;;;;13.10;100.00;98494.41;5050609;28;20228;-67
2021/12/11 10:27:43;;;;;;;2.93;2.67;;;;;;;13.09;100.00;98492.75;5051485;28;20193;-67
2021/12/11 10:30:17;;;;;;;3.53;2.43;;;;;;;13.14;100.00;98496.75;5051328;28;20215;-67
2021/12/11 10:32:44;;;;;;;8.07;3.77;;;;;;;13.17;100.00;98485.44;5051064;28;20200;-67
2021/12/11 10:35:14;;;;;;;4.43;2.93;;;;;;;13.21;100.00;98476.66;5051044;28;20209;-67
2021/12/11 10:37:42;;;;;;;7.60;4.53;;;;;;;13.30;100.00;98486.44;5051476;28;20193;-67
2021/12/11 10:40:13;;;;;;;7.17;3.70;;;;;;;13.43;100.00;98477.13;5050114;28;20677;-67
2021/12/11 10:42:41;;;;;;;6.27;4.10;;;;;;;13.49;100.00;98486.22;5051307;28;20653;-67
2021/12/11 10:45:15;;;;;;;3.93;3.33;;;;;;;13.54;100.00;98474.75;5051000;28;20673;-67
2021/12/11 10:47:47;;;;;;;7.80;2.90;;;;;;;13.38;100.00;98481.66;5051209;28;20197;-67
2021/12/11 10:50:19;;;;;;;4.60;3.08;;;;;;;13.42;100.00;98478.00;5049828;28;20509;-74
2021/12/11 10:52:46;;;;;;;19.13;10.53;;;;;;;13.55;100.00;98476.41;5050933;28;20213;-74
2021/12/11 10:55:17;;;;;;;7.43;4.43;;;;;;;13.53;100.00;98467.97;5049521;28;20669;-74
2021/12/11 10:57:44;;;;;;;4.70;2.93;;;;;;;13.52;100.00;98450.00;5049700;28;20205;-74
2021/12/11 11:00:18;;;;;;;13.33;6.63;;;;;;;13.47;100.00;98457.97;5050146;28;20200;-73
2021/12/11 11:02:46;;;;;;;12.03;6.47;;;;;;;13.41;100.00;98448.03;5049908;28;20196;-74
2021/12/11 11:05:17;;;;;;;5.87;3.73;;;;;;;13.35;100.00;98422.63;5049770;28;20208;-74
2021/12/11 11:07:46;;;;;;;4.07;3.53;;;;;;;13.37;100.00;98413.09;5049457;28;20589;-74
2021/12/11 11:10:17;;;;;;;6.00;4.07;;;;;;;13.22;100.00;98413.97;5052569;28;20219;-73
2021/12/11 11:12:44;;;;;;;3.00;2.80;;;;;;;13.19;100.00;98408.97;5053959;28;20204;-73
2021/12/11 11:15:20;;;;;;;3.57;3.27;;;;;;;13.10;100.00;98422.38;5045532;28;20216;-74
2021/12/11 11:17:48;;;;;;;5.57;2.60;;;;;;;13.08;100.00;98422.47;5043923;28;20749;-74
2021/12/11 11:20:18;;;;;;;4.27;3.17;;;;;;;12.98;100.00;98417.88;5048816;28;20573;-73
2021/12/11 11:22:47;;;;;;;5.60;3.20;;;;;;;12.95;100.00;98402.63;5049662;28;20212;-74
2021/12/11 11:25:17;;;;;;;5.60;2.90;;;;;;;12.90;100.00;98413.16;5053097;28;20229;-74
2021/12/11 11:27:47;;;;;;;4.20;2.50;;;;;;;12.87;100.00;98387.59;5052897;28;20200;-73
2021/12/11 11:30:20;;;;;;;3.53;3.10;;;;;;;12.95;100.00;98393.16;5052847;28;21672;-74
2021/12/11 11:32:48;;;;;;;7.60;3.77;;;;;;;12.86;100.00;98385.94;5052878;28;20292;-73
2021/12/11 11:35:21;;;;;;;7.03;3.07;;;;;;;12.89;100.00;98374.66;5053592;28;20287;-73
2021/12/11 11:37:50;;;;;;;6.27;4.30;;;;;;;12.88;100.00;98380.72;5052977;28;20212;-74